createdAt,value
2018-10-03T00:00:42.545Z,8.93
2018-10-03T00:03:11.892Z,7.67
2018-10-03T00:05:41.260Z,7.17
2018-10-03T00:08:10.523Z,5.33
2018-10-03T00:10:39.841Z,5.57
2018-10-03T00:13:09.120Z,3.90
2018-10-03T00:15:38.451Z,7.50
2018-10-03T00:18:07.715Z,6.67
2018-10-03T00:20:37.112Z,6.30
2018-10-03T00:23:06.604Z,8.87
2018-10-03T00:25:35.881Z,7.63
2018-10-03T00:28:05.254Z,9.17
2018-10-03T00:30:34.578Z,7.87
2018-10-03T00:33:03.913Z,6.80
2018-10-03T00:35:33.173Z,6.37
2018-10-03T00:38:02.488Z,6.67
2018-10-03T00:40:31.756Z,4.83
2018-10-03T00:43:01.019Z,4.17
2018-10-03T00:45:30.322Z,6.60
2018-10-03T00:47:59.615Z,8.60
2018-10-03T00:50:28.868Z,6.73
2018-10-03T00:52:58.175Z,3.37
2018-10-03T00:55:27.424Z,7.33
2018-10-03T00:57:56.682Z,4.73
2018-10-03T01:00:25.956Z,5.70
2018-10-03T01:02:55.242Z,6.03
2018-10-03T01:05:24.506Z,5.93
2018-10-03T01:07:53.762Z,9.43
2018-10-03T01:10:23.041Z,3.40
2018-10-03T01:12:52.313Z,6.87
2018-10-03T01:15:21.583Z,5.13
2018-10-03T01:17:50.845Z,6.73
2018-10-03T01:20:20.096Z,4.60
2018-10-03T01:22:49.347Z,4.33
2018-10-03T01:25:18.609Z,4.70
2018-10-03T01:27:47.881Z,4.23
2018-10-03T01:30:17.199Z,5.03
2018-10-03T01:32:46.486Z,7.10
2018-10-03T01:35:15.732Z,5.17
2018-10-03T01:37:45.089Z,3.60
2018-10-03T01:40:14.433Z,4.10
2018-10-03T01:42:43.704Z,3.60
2018-10-03T01:45:12.975Z,6.97
2018-10-03T01:47:42.264Z,5.20
2018-10-03T01:50:11.539Z,5.13
2018-10-03T01:52:40.858Z,4.60
2018-10-03T01:55:10.159Z,5.33
2018-10-03T01:57:39.439Z,5.50
2018-10-03T02:00:08.770Z,6.33
2018-10-03T02:02:38.042Z,7.07
2018-10-03T02:05:07.337Z,7.87
2018-10-03T02:07:36.620Z,6.17
2018-10-03T02:10:05.901Z,3.27
2018-10-03T02:12:35.181Z,8.47
2018-10-03T02:15:04.461Z,6.43
2018-10-03T02:17:33.737Z,8.43
2018-10-03T02:20:03.002Z,8.83
2018-10-03T02:22:32.259Z,6.73
2018-10-03T02:25:01.525Z,10.57
2018-10-03T02:27:30.829Z,8.20
2018-10-03T02:30:00.074Z,7.30
2018-10-03T02:32:30.231Z,6.47
2018-10-03T02:34:59.585Z,6.80
2018-10-03T02:37:28.855Z,5.80
2018-10-03T02:39:58.160Z,9.70
2018-10-03T02:42:27.446Z,5.97
2018-10-03T02:44:56.743Z,5.00
2018-10-03T02:47:26.067Z,5.50
2018-10-03T02:49:55.375Z,9.47
2018-10-03T02:52:24.685Z,11.43
2018-10-03T02:54:54.082Z,5.73
2018-10-03T02:57:23.370Z,5.23
2018-10-03T02:59:52.651Z,8.03
2018-10-03T03:02:21.939Z,6.57
2018-10-03T03:04:51.274Z,3.83
2018-10-03T03:07:20.554Z,5.43
2018-10-03T03:09:49.895Z,7.00
2018-10-03T03:12:19.242Z,7.97
2018-10-03T03:14:48.532Z,8.57
2018-10-03T03:17:17.823Z,4.33
2018-10-03T03:19:47.165Z,6.67
2018-10-03T03:22:16.425Z,8.10
2018-10-03T03:24:45.707Z,5.40
2018-10-03T03:27:14.998Z,5.57
2018-10-03T03:29:44.325Z,6.47
2018-10-03T03:32:13.607Z,9.80
2018-10-03T03:34:42.958Z,4.67
2018-10-03T03:37:12.250Z,6.87
2018-10-03T03:39:41.576Z,7.93
2018-10-03T03:42:10.923Z,8.07
2018-10-03T03:44:40.206Z,6.50
2018-10-03T03:47:09.516Z,6.93
2018-10-03T03:49:38.827Z,7.17
2018-10-03T03:52:08.097Z,5.90
2018-10-03T03:54:37.398Z,6.47
2018-10-03T03:57:06.763Z,8.90
2018-10-03T03:59:36.067Z,5.63
2018-10-03T04:02:05.368Z,8.70
2018-10-03T04:04:34.694Z,9.53
2018-10-03T04:07:04.011Z,9.60
2018-10-03T04:09:33.342Z,6.37
2018-10-03T04:12:02.625Z,7.83
2018-10-03T04:14:31.895Z,7.47
2018-10-03T04:17:01.219Z,4.93
2018-10-03T04:19:30.471Z,5.33
2018-10-03T04:21:59.742Z,4.70
2018-10-03T04:24:29.021Z,6.90
2018-10-03T04:26:58.362Z,6.70
2018-10-03T04:29:27.696Z,5.00
2018-10-03T04:31:56.978Z,5.73
2018-10-03T04:34:26.280Z,5.43
2018-10-03T04:36:55.568Z,8.03
2018-10-03T04:39:24.902Z,6.97
2018-10-03T04:41:54.208Z,9.03
2018-10-03T04:44:23.520Z,5.67
2018-10-03T04:46:52.863Z,7.03
2018-10-03T04:49:22.164Z,6.43
2018-10-03T04:51:51.459Z,6.43
2018-10-03T04:54:20.771Z,5.90
2018-10-03T04:56:50.067Z,7.70
2018-10-03T04:59:19.369Z,7.73
2018-10-03T05:01:48.715Z,6.37
2018-10-03T05:04:17.991Z,6.73
2018-10-03T05:06:47.309Z,5.83
2018-10-03T05:09:16.628Z,7.03
2018-10-03T05:11:45.921Z,6.57
2018-10-03T05:14:15.207Z,6.23
2018-10-03T05:16:44.539Z,5.10
2018-10-03T05:19:13.820Z,6.60
2018-10-03T05:21:43.124Z,7.73
2018-10-03T05:24:12.419Z,7.93
2018-10-03T05:26:41.743Z,6.17
2018-10-03T05:29:11.019Z,8.27
2018-10-03T05:31:40.303Z,3.63
2018-10-03T05:34:09.589Z,5.47
2018-10-03T05:36:39.036Z,7.93
2018-10-03T05:39:11.416Z,7.33
2018-10-03T05:41:40.797Z,5.03
2018-10-03T05:44:10.619Z,7.60
2018-10-03T05:46:40.431Z,8.57
2018-10-03T05:49:09.737Z,8.90
2018-10-03T05:51:39.232Z,6.63
2018-10-03T05:54:08.600Z,9.97
2018-10-03T05:56:37.853Z,9.43
2018-10-03T05:59:07.114Z,6.00
2018-10-03T06:01:36.419Z,4.60
2018-10-03T06:04:05.688Z,7.83
2018-10-03T06:06:35.052Z,8.60
2018-10-03T06:09:06.050Z,7.10
2018-10-03T06:11:35.301Z,8.63
2018-10-03T06:14:04.565Z,6.57
2018-10-03T06:16:33.842Z,6.60
2018-10-03T06:19:03.112Z,7.70
2018-10-03T06:21:32.706Z,7.70
2018-10-03T06:24:01.990Z,6.20
2018-10-03T06:26:31.259Z,7.23
2018-10-03T06:29:00.575Z,9.13
2018-10-03T06:31:29.850Z,6.97
2018-10-03T06:33:59.156Z,5.53
2018-10-03T06:36:28.431Z,5.63
2018-10-03T06:38:57.676Z,9.80
2018-10-03T06:41:27.018Z,7.90
2018-10-03T06:43:56.275Z,10.17
2018-10-03T06:46:25.587Z,7.13
2018-10-03T06:48:54.874Z,8.03
2018-10-03T06:51:24.190Z,9.03
2018-10-03T06:53:53.494Z,8.13
2018-10-03T06:56:22.842Z,8.67
2018-10-03T06:58:52.219Z,7.03
2018-10-03T07:01:21.630Z,5.63
2018-10-03T07:03:50.978Z,6.27
2018-10-03T07:06:20.294Z,5.20
2018-10-03T07:08:49.721Z,6.83
2018-10-03T07:11:19.044Z,8.57
2018-10-03T07:13:48.397Z,9.43
2018-10-03T07:16:18.130Z,8.53
2018-10-03T07:18:47.457Z,6.73
2018-10-03T07:21:16.855Z,8.93
2018-10-03T07:23:46.250Z,7.27
2018-10-03T07:26:15.543Z,4.77
2018-10-03T07:28:44.884Z,6.80
2018-10-03T07:31:14.245Z,4.20
2018-10-03T07:33:43.686Z,7.00
2018-10-03T07:36:13.160Z,7.60
2018-10-03T07:38:42.464Z,9.30
2018-10-03T07:41:11.862Z,7.67
2018-10-03T07:43:41.205Z,6.07
2018-10-03T07:46:10.476Z,9.23
2018-10-03T07:48:39.744Z,9.30
2018-10-03T07:51:09.042Z,8.67
2018-10-03T07:53:38.494Z,8.50
2018-10-03T07:56:07.877Z,6.43
2018-10-03T07:58:37.137Z,6.57
2018-10-03T08:01:06.490Z,7.90
2018-10-03T08:03:35.841Z,6.40
2018-10-03T08:06:05.140Z,11.23
2018-10-03T08:08:34.691Z,6.13
2018-10-03T08:11:03.994Z,7.00
2018-10-03T08:13:33.295Z,6.83
2018-10-03T08:16:02.621Z,3.60
2018-10-03T08:18:31.981Z,6.27
2018-10-03T08:21:01.281Z,8.23
2018-10-03T08:23:30.588Z,6.80
2018-10-03T08:25:59.981Z,6.23
2018-10-03T08:28:29.401Z,5.07
2018-10-03T08:30:58.707Z,7.13
2018-10-03T08:33:27.997Z,5.60
2018-10-03T08:35:57.350Z,5.03
2018-10-03T08:38:26.720Z,7.17
2018-10-03T08:40:56.128Z,5.17
2018-10-03T08:43:25.428Z,10.70
2018-10-03T08:45:54.709Z,6.40
2018-10-03T08:48:23.962Z,5.53
2018-10-03T08:50:53.245Z,8.37
2018-10-03T08:53:22.509Z,6.43
2018-10-03T08:55:51.781Z,7.70
2018-10-03T08:58:21.340Z,6.33
2018-10-03T09:00:50.690Z,6.70
2018-10-03T09:03:19.957Z,7.03
2018-10-03T09:05:49.243Z,3.23
2018-10-03T09:08:18.502Z,6.47
2018-10-03T09:10:48.660Z,8.10
2018-10-03T09:13:18.041Z,5.30
2018-10-03T09:15:47.320Z,7.67
2018-10-03T09:18:22.891Z,6.77
2018-10-03T09:20:52.202Z,3.87
2018-10-03T09:23:21.486Z,5.87
2018-10-03T09:25:50.782Z,4.10
2018-10-03T09:28:20.183Z,4.97
2018-10-03T09:30:49.388Z,5.30
2018-10-03T09:33:18.747Z,4.20
2018-10-03T09:35:48.139Z,4.80
2018-10-03T09:38:17.419Z,4.50
2018-10-03T09:40:46.731Z,3.57
2018-10-03T09:43:16.133Z,5.63
2018-10-03T09:45:45.445Z,4.27
2018-10-03T09:48:14.760Z,4.80
2018-10-03T09:50:44.052Z,4.33
2018-10-03T09:53:13.353Z,5.77
2018-10-03T09:55:42.675Z,7.10
2018-10-03T09:58:11.953Z,5.90
2018-10-03T10:00:46.524Z,5.37
2018-10-03T10:03:15.861Z,4.83
2018-10-03T10:05:45.178Z,3.77
2018-10-03T10:08:14.490Z,5.37
2018-10-03T10:10:43.841Z,4.80
2018-10-03T10:13:13.333Z,7.07
2018-10-03T10:15:42.725Z,4.23
2018-10-03T10:18:12.096Z,4.10
2018-10-03T10:20:41.597Z,3.83
2018-10-03T10:23:11.025Z,6.27
2018-10-03T10:25:43.939Z,4.90
2018-10-03T10:28:13.313Z,5.73
2018-10-03T10:30:42.788Z,2.80
2018-10-03T10:33:12.408Z,2.90
2018-10-03T10:35:41.800Z,3.70
2018-10-03T10:38:11.125Z,5.07
2018-10-03T10:40:40.570Z,4.87
2018-10-03T10:43:09.944Z,4.07
2018-10-03T10:45:39.399Z,3.03
2018-10-03T10:48:08.652Z,3.77
2018-10-03T10:50:38.099Z,4.67
2018-10-03T10:53:07.463Z,3.60
2018-10-03T10:55:36.809Z,5.97
2018-10-03T10:58:06.308Z,5.97
2018-10-03T11:00:36.127Z,6.50
2018-10-03T11:03:05.509Z,3.07
2018-10-03T11:05:35.024Z,6.13
2018-10-03T11:08:04.834Z,3.67
2018-10-03T11:10:34.373Z,7.10
2018-10-03T11:13:03.755Z,2.27
2018-10-03T11:15:33.648Z,4.77
2018-10-03T11:18:03.235Z,4.50
2018-10-03T11:20:32.603Z,4.83
2018-10-03T11:23:02.205Z,4.43
2018-10-03T11:25:31.851Z,5.00
2018-10-03T11:28:01.457Z,3.20
2018-10-03T11:30:30.855Z,2.33
2018-10-03T11:33:00.767Z,5.10
2018-10-03T11:35:30.121Z,2.60
2018-10-03T11:37:59.438Z,6.03
2018-10-03T11:40:28.808Z,3.60
2018-10-03T11:42:58.160Z,4.23
2018-10-03T11:45:34.388Z,3.30
2018-10-03T11:48:03.787Z,3.77
2018-10-03T11:50:36.413Z,3.27
2018-10-03T11:53:05.679Z,2.57
2018-10-03T11:55:34.985Z,2.53
2018-10-03T11:58:04.316Z,2.53
2018-10-03T12:00:33.761Z,2.50
2018-10-03T12:03:03.174Z,2.27
2018-10-03T12:05:32.355Z,2.97
2018-10-03T12:08:01.703Z,2.17
2018-10-03T12:10:31.053Z,3.27
2018-10-03T12:13:00.467Z,3.87
2018-10-03T12:15:29.749Z,2.27
2018-10-03T12:17:59.149Z,4.83
2018-10-03T12:20:28.453Z,3.30
2018-10-03T12:22:57.826Z,3.33
2018-10-03T12:25:27.139Z,2.00
2018-10-03T12:27:56.459Z,2.93
2018-10-03T12:30:25.806Z,7.00
2018-10-03T12:32:55.089Z,4.43
2018-10-03T12:35:29.646Z,3.27
2018-10-03T12:37:58.988Z,3.00
2018-10-03T12:40:28.536Z,3.37
2018-10-03T12:42:57.970Z,2.93
2018-10-03T12:45:27.990Z,3.07
2018-10-03T12:47:57.856Z,3.93
2018-10-03T12:50:27.533Z,3.53
2018-10-03T12:52:56.845Z,4.57
2018-10-03T12:55:26.880Z,5.10
2018-10-03T12:57:56.195Z,4.63
2018-10-03T13:00:30.241Z,3.13
2018-10-03T13:03:00.558Z,4.97
2018-10-03T13:05:30.040Z,5.10
2018-10-03T13:07:59.983Z,3.67
2018-10-03T13:10:30.380Z,3.57
2018-10-03T13:12:59.827Z,3.97
2018-10-03T13:15:29.242Z,4.17
2018-10-03T13:17:58.671Z,3.30
2018-10-03T13:20:28.055Z,8.63
2018-10-03T13:22:57.467Z,2.87
2018-10-03T13:25:26.863Z,4.90
2018-10-03T13:27:56.170Z,2.93
2018-10-03T13:30:25.570Z,3.83
2018-10-03T13:32:54.868Z,4.70
2018-10-03T13:35:24.149Z,3.50
2018-10-03T13:37:53.498Z,2.53
2018-10-03T13:40:22.785Z,2.77
2018-10-03T13:42:52.155Z,3.63
2018-10-03T13:45:21.467Z,3.77
2018-10-03T13:47:50.788Z,4.90
2018-10-03T13:50:20.111Z,4.40
2018-10-03T13:52:49.437Z,3.50
2018-10-03T13:55:18.757Z,4.73
2018-10-03T13:57:48.224Z,4.30
2018-10-03T14:00:17.594Z,4.37
2018-10-03T14:02:46.991Z,5.70
2018-10-03T14:05:16.250Z,5.63
2018-10-03T14:07:46.973Z,6.07
2018-10-03T14:10:17.183Z,5.67
2018-10-03T14:12:47.193Z,6.20
2018-10-03T14:15:16.518Z,4.67
2018-10-03T14:17:45.818Z,6.57
2018-10-03T14:20:15.248Z,4.90
2018-10-03T14:22:44.523Z,4.33
2018-10-03T14:25:13.848Z,3.73
2018-10-03T14:27:43.990Z,4.20
2018-10-03T14:30:13.342Z,6.90
2018-10-03T14:32:42.794Z,5.70
2018-10-03T14:35:12.143Z,5.80
2018-10-03T14:37:43.954Z,3.97
2018-10-03T14:40:13.996Z,4.83
2018-10-03T14:42:43.316Z,5.47
2018-10-03T14:45:12.547Z,6.30
2018-10-03T14:47:41.910Z,4.80
2018-10-03T14:50:11.235Z,4.63
2018-10-03T14:52:40.794Z,5.20
2018-10-03T14:55:10.015Z,3.90
2018-10-03T14:57:39.324Z,4.50
2018-10-03T15:00:09.531Z,4.90
2018-10-03T15:02:38.777Z,4.03
2018-10-03T15:05:08.753Z,4.50
2018-10-03T15:07:38.271Z,4.70
2018-10-03T15:10:07.799Z,6.70
2018-10-03T15:12:37.174Z,5.17
2018-10-03T15:15:06.881Z,6.10
2018-10-03T15:17:36.212Z,6.50
2018-10-03T15:20:06.411Z,6.43
2018-10-03T15:22:35.670Z,9.20
2018-10-03T15:25:04.920Z,8.17
2018-10-03T15:27:34.259Z,4.57
2018-10-03T15:30:03.689Z,7.50
2018-10-03T15:32:32.960Z,11.53
2018-10-03T15:35:03.126Z,8.07
2018-10-03T15:37:32.569Z,7.57
2018-10-03T15:40:02.358Z,5.53
2018-10-03T15:42:31.707Z,9.13
2018-10-03T15:45:01.110Z,3.37
2018-10-03T15:47:31.227Z,6.03
2018-10-03T15:50:00.657Z,4.20
2018-10-03T15:52:29.994Z,6.57
2018-10-03T15:54:59.826Z,7.07
2018-10-03T15:57:29.120Z,5.17
2018-10-03T15:59:58.523Z,5.10
2018-10-03T16:02:27.918Z,7.47
2018-10-03T16:04:57.798Z,5.80
2018-10-03T16:07:27.102Z,9.03
2018-10-03T16:09:56.534Z,7.57
2018-10-03T16:12:25.833Z,4.87
2018-10-03T16:14:55.126Z,8.17
2018-10-03T16:17:24.739Z,9.00
2018-10-03T16:19:54.020Z,8.03
2018-10-03T16:22:23.406Z,11.23
2018-10-03T16:24:52.679Z,6.37
2018-10-03T16:27:22.009Z,11.20
2018-10-03T16:29:51.315Z,7.77
2018-10-03T16:32:20.656Z,5.67
2018-10-03T16:34:49.893Z,9.40
2018-10-03T16:37:19.183Z,7.53
2018-10-03T16:39:48.443Z,10.47
2018-10-03T16:42:17.713Z,8.50
2018-10-03T16:44:46.985Z,10.40
2018-10-03T16:47:16.293Z,7.47
2018-10-03T16:49:45.604Z,10.27
2018-10-03T16:52:14.885Z,15.43
2018-10-03T16:54:44.237Z,11.77
2018-10-03T16:57:13.797Z,8.47
2018-10-03T16:59:43.077Z,10.00
2018-10-03T17:02:12.427Z,11.63
2018-10-03T17:04:41.813Z,8.33
2018-10-03T17:07:11.124Z,10.80
2018-10-03T17:09:41.049Z,12.53
2018-10-03T17:12:10.395Z,9.07
2018-10-03T17:14:40.271Z,9.47
2018-10-03T17:17:10.350Z,8.10
2018-10-03T17:19:39.870Z,11.37
2018-10-03T17:22:09.790Z,10.43
2018-10-03T17:24:39.633Z,11.47
2018-10-03T17:27:08.983Z,11.43
2018-10-03T17:29:38.247Z,18.23
2018-10-03T17:32:07.609Z,18.20
2018-10-03T17:34:36.903Z,12.73
2018-10-03T17:37:06.348Z,10.73
2018-10-03T17:39:35.701Z,11.37
2018-10-03T17:42:04.969Z,15.27
2018-10-03T17:44:34.323Z,11.13
2018-10-03T17:47:03.597Z,10.60
2018-10-03T17:49:32.955Z,8.60
2018-10-03T17:52:02.303Z,11.83
2018-10-03T17:54:31.786Z,13.30
2018-10-03T17:57:01.132Z,12.03
2018-10-03T17:59:30.448Z,12.07
2018-10-03T18:02:02.769Z,9.77
2018-10-03T18:04:32.043Z,18.23
2018-10-03T18:07:01.533Z,12.50
2018-10-03T18:09:30.855Z,12.73
2018-10-03T18:12:00.159Z,12.50
2018-10-03T18:14:29.422Z,15.03
2018-10-03T18:16:58.722Z,13.37
2018-10-03T18:19:28.007Z,9.93
2018-10-03T18:21:57.371Z,12.13
2018-10-03T18:24:26.678Z,12.30
2018-10-03T18:26:55.962Z,11.93
2018-10-03T18:29:25.238Z,11.67
2018-10-03T18:31:54.575Z,8.70
2018-10-03T18:34:23.920Z,12.73
2018-10-03T18:36:53.284Z,13.33
2018-10-03T18:39:22.669Z,12.47
2018-10-03T18:41:51.978Z,9.10
2018-10-03T18:44:21.269Z,10.70
2018-10-03T18:46:50.657Z,10.57
2018-10-03T18:49:20.084Z,14.33
2018-10-03T18:51:49.498Z,13.00
2018-10-03T18:54:18.784Z,9.17
2018-10-03T18:56:48.070Z,8.90
2018-10-03T18:59:17.353Z,10.03
2018-10-03T19:01:46.694Z,13.47
2018-10-03T19:04:16.037Z,21.50
2018-10-03T19:06:45.388Z,30.13
2018-10-03T19:09:14.755Z,19.97
2018-10-03T19:11:44.111Z,12.83
2018-10-03T19:14:13.421Z,11.70
2018-10-03T19:16:42.720Z,8.40
2018-10-03T19:19:12.800Z,9.43
2018-10-03T19:21:42.061Z,7.87
2018-10-03T19:24:11.380Z,11.37
2018-10-03T19:26:40.786Z,10.37
2018-10-03T19:29:10.029Z,12.10
2018-10-03T19:31:39.408Z,14.40
2018-10-03T19:34:08.824Z,13.90
2018-10-03T19:36:38.141Z,14.70
2018-10-03T19:39:08.321Z,24.10
2018-10-03T19:41:38.034Z,17.23
2018-10-03T19:44:07.455Z,16.57
2018-10-03T19:46:36.739Z,15.07
2018-10-03T19:49:06.025Z,11.63
2018-10-03T19:51:35.279Z,13.43
2018-10-03T19:54:04.962Z,11.63
2018-10-03T19:56:34.246Z,10.87
2018-10-03T19:59:03.575Z,12.20
2018-10-03T20:01:32.838Z,11.07
2018-10-03T20:04:02.113Z,12.40
2018-10-03T20:06:31.439Z,10.80
2018-10-03T20:09:00.706Z,12.80
2018-10-03T20:11:29.966Z,12.13
2018-10-03T20:13:59.388Z,17.87
2018-10-03T20:16:28.605Z,13.50
2018-10-03T20:18:57.986Z,11.37
2018-10-03T20:21:27.255Z,10.30
2018-10-03T20:23:56.556Z,11.50
2018-10-03T20:26:25.910Z,11.87
2018-10-03T20:28:55.312Z,10.53
2018-10-03T20:31:24.611Z,8.87
2018-10-03T20:33:54.968Z,10.83
2018-10-03T20:36:24.458Z,9.60
2018-10-03T20:38:53.779Z,10.00
2018-10-03T20:41:23.044Z,10.03
2018-10-03T20:43:52.386Z,8.90
2018-10-03T20:46:21.789Z,12.63
2018-10-03T20:48:51.168Z,19.20
2018-10-03T20:51:20.603Z,19.03
2018-10-03T20:53:49.920Z,17.17
2018-10-03T20:56:19.231Z,22.77
2018-10-03T20:58:48.659Z,23.30
2018-10-03T21:01:18.075Z,33.00
2018-10-03T21:03:47.415Z,27.13
2018-10-03T21:06:16.734Z,20.53
2018-10-03T21:08:46.095Z,22.03
2018-10-03T21:11:15.390Z,21.03
2018-10-03T21:13:44.745Z,19.37
2018-10-03T21:16:14.185Z,16.47
2018-10-03T21:18:43.479Z,13.17
2018-10-03T21:21:13.590Z,14.50
2018-10-03T21:23:42.849Z,14.63
2018-10-03T21:26:12.291Z,14.63
2018-10-03T21:28:41.578Z,14.07
2018-10-03T21:31:10.886Z,12.90
2018-10-03T21:33:40.196Z,15.10
2018-10-03T21:36:09.530Z,14.77
2018-10-03T21:38:38.842Z,12.33
2018-10-03T21:41:08.208Z,13.50
2018-10-03T21:43:37.724Z,13.33
2018-10-03T21:46:07.137Z,13.30
2018-10-03T21:48:36.497Z,12.20
2018-10-03T21:51:05.855Z,15.20
2018-10-03T21:53:35.335Z,13.27
2018-10-03T21:56:04.623Z,10.27
2018-10-03T21:58:33.973Z,17.03
2018-10-03T22:01:03.415Z,14.73
2018-10-03T22:03:32.687Z,16.43
2018-10-03T22:06:01.990Z,11.83
2018-10-03T22:08:31.284Z,10.70
2018-10-03T22:11:00.579Z,10.13
2018-10-03T22:13:29.848Z,14.73
2018-10-03T22:15:59.160Z,14.17
2018-10-03T22:18:28.471Z,13.17
2018-10-03T22:20:57.748Z,12.00
2018-10-03T22:23:27.020Z,9.63
2018-10-03T22:25:56.342Z,12.20
2018-10-03T22:28:37.903Z,10.47
2018-10-03T22:31:07.265Z,13.47
2018-10-03T22:33:36.578Z,12.47
2018-10-03T22:36:05.857Z,11.73
2018-10-03T22:38:35.546Z,11.87
2018-10-03T22:41:04.892Z,19.77
2018-10-03T22:43:34.353Z,13.47
2018-10-03T22:46:03.657Z,14.53
2018-10-03T22:48:32.969Z,12.87
2018-10-03T22:51:02.356Z,10.03
2018-10-03T22:53:31.585Z,12.53
2018-10-03T22:56:00.864Z,10.27
2018-10-03T22:58:30.161Z,12.47
2018-10-03T23:00:59.431Z,12.70
2018-10-03T23:03:28.744Z,11.67
2018-10-03T23:05:58.049Z,13.07
2018-10-03T23:08:27.637Z,9.27
2018-10-03T23:10:56.968Z,15.40
2018-10-03T23:13:26.374Z,17.43
2018-10-03T23:15:55.682Z,13.63
2018-10-03T23:18:25.082Z,16.20
2018-10-03T23:20:54.403Z,15.43
2018-10-03T23:23:29.990Z,11.03
2018-10-03T23:25:59.287Z,13.97
2018-10-03T23:28:28.610Z,15.33
2018-10-03T23:30:57.908Z,18.13
2018-10-03T23:33:27.189Z,16.37
2018-10-03T23:35:56.487Z,15.33
2018-10-03T23:38:25.779Z,15.33
2018-10-03T23:40:55.418Z,16.07
2018-10-03T23:43:24.899Z,18.70
2018-10-03T23:45:54.200Z,16.40
2018-10-03T23:48:23.520Z,13.90
2018-10-03T23:50:52.867Z,12.43
2018-10-03T23:53:22.437Z,11.27
2018-10-03T23:55:51.786Z,16.33
2018-10-03T23:58:21.089Z,14.73
